createdAt,value
2022-12-05T10:28:54.608Z,20.77
2022-12-05T10:34:07.223Z,21.73
2022-12-05T10:39:11.765Z,23.15
2022-12-05T10:44:17.757Z,23.10
2022-12-05T10:49:51.566Z,23.85
2022-12-05T10:55:05.527Z,24.90
2022-12-05T11:00:18.177Z,25.38
2022-12-05T11:05:30.359Z,26.40
2022-12-05T11:10:37.808Z,25.63
2022-12-05T11:15:53.784Z,26.23
2022-12-05T11:21:10.371Z,26.15
2022-12-05T11:26:35.983Z,27.67
2022-12-05T11:44:54.583Z,28.20
2022-12-05T11:50:17.717Z,29.07
2022-12-05T11:55:26.810Z,30.58
2022-12-05T12:07:15.655Z,26.80
2022-12-05T12:12:42.017Z,27.02
2022-12-05T12:18:53.720Z,27.42
2022-12-05T12:24:30.854Z,28.63
2022-12-05T12:30:01.274Z,30.25
2022-12-05T12:35:25.028Z,25.80
2022-12-05T12:40:37.136Z,29.20
2022-12-05T12:46:23.157Z,27.77
2022-12-05T12:51:28.463Z,26.92
2022-12-05T12:56:41.025Z,26.35
2022-12-05T13:01:54.361Z,27.00
2022-12-05T13:07:04.190Z,28.02
2022-12-05T13:12:35.853Z,26.73
2022-12-05T13:17:58.700Z,27.48
2022-12-05T13:23:18.360Z,28.02
2022-12-05T13:28:30.158Z,28.15
2022-12-05T13:33:44.986Z,27.00
2022-12-05T13:39:15.782Z,26.98
2022-12-05T13:44:34.928Z,29.05
2022-12-05T13:49:48.213Z,27.60
2022-12-05T13:56:02.296Z,27.92
2022-12-05T14:01:56.043Z,27.98
2022-12-05T14:07:02.096Z,29.50
2022-12-05T14:13:00.458Z,28.75
2022-12-05T14:18:15.986Z,29.30
2022-12-05T14:23:45.457Z,30.33
2022-12-05T14:35:22.226Z,31.98
2022-12-05T14:40:44.862Z,31.67
2022-12-05T14:51:57.530Z,32.13
2022-12-05T14:57:12.971Z,34.67
2022-12-05T15:02:24.521Z,34.70
2022-12-05T15:07:34.929Z,33.50
2022-12-05T15:13:18.943Z,32.30
2022-12-05T15:18:42.177Z,36.00
2022-12-05T15:23:51.355Z,37.13
2022-12-05T15:29:04.077Z,35.17
2022-12-05T15:34:20.399Z,36.97
2022-12-05T15:39:29.329Z,37.00
2022-12-05T15:44:38.189Z,36.95
2022-12-05T15:49:45.608Z,37.30
2022-12-05T15:54:51.450Z,39.10
2022-12-05T16:00:16.917Z,39.70
2022-12-05T16:05:32.862Z,37.92
2022-12-05T16:10:37.192Z,35.63
2022-12-05T16:15:50.825Z,36.80
2022-12-05T16:27:31.688Z,37.28
2022-12-05T16:33:03.261Z,38.00
2022-12-05T16:38:38.554Z,36.10
2022-12-05T16:43:59.499Z,37.17
2022-12-05T16:49:45.857Z,38.92
2022-12-05T16:55:04.313Z,38.83
2022-12-05T17:00:15.440Z,37.05
2022-12-05T17:05:24.815Z,39.28
2022-12-05T17:10:30.435Z,37.63
2022-12-05T17:15:36.430Z,37.88
2022-12-05T17:20:43.326Z,37.85
2022-12-05T17:25:52.188Z,36.70
2022-12-05T17:31:17.665Z,37.70
2022-12-05T17:48:38.288Z,38.30
2022-12-05T17:53:45.849Z,37.10
2022-12-05T17:58:52.991Z,37.78
2022-12-05T18:04:07.237Z,37.92
2022-12-05T18:23:00.179Z,39.05
2022-12-05T18:33:24.679Z,37.85
2022-12-05T18:39:02.566Z,38.65
2022-12-05T18:49:44.139Z,42.28
2022-12-05T18:54:57.671Z,40.73
2022-12-05T19:00:16.400Z,42.13
2022-12-05T19:24:15.907Z,32.47
2022-12-05T19:29:39.944Z,26.83
2022-12-05T19:34:48.485Z,25.92
2022-12-05T19:39:52.600Z,25.35
2022-12-05T19:44:56.345Z,25.90
2022-12-05T19:50:01.983Z,24.70
2022-12-05T19:55:07.335Z,25.77
2022-12-05T20:00:17.231Z,25.73
2022-12-05T20:05:25.744Z,28.33
2022-12-05T20:10:41.377Z,26.23
2022-12-05T20:15:48.249Z,27.58
2022-12-05T20:21:04.034Z,23.77
2022-12-05T20:26:10.861Z,27.33
2022-12-05T20:31:17.160Z,24.63
2022-12-05T20:36:25.833Z,26.67
2022-12-05T20:41:33.737Z,26.45
2022-12-05T20:46:38.038Z,28.45
2022-12-05T20:51:45.886Z,26.83
2022-12-05T21:03:12.938Z,31.73
2022-12-05T21:08:28.448Z,29.55
2022-12-05T21:13:35.868Z,29.47
2022-12-05T21:18:41.319Z,26.27
2022-12-05T21:23:49.893Z,28.85
2022-12-05T21:34:23.188Z,28.92
2022-12-05T21:39:52.395Z,29.33
2022-12-05T21:44:59.254Z,29.45
2022-12-05T21:50:07.900Z,26.75
2022-12-05T21:55:19.643Z,29.17
2022-12-05T22:00:23.622Z,25.23
2022-12-05T22:05:27.561Z,25.80
2022-12-05T22:10:54.332Z,24.70
